Cheraw, Colorado
Current Conditions -  °F | °C
As of 12:53 AM on Saturday 20 Dec 2014 (Local Time) from KLHX Reporting Station
Clear Clear  
Wind Chill: 17°   Ceiling: Unl
Heat Index: 25°   Visibility: 10mi
Dew Point: 21°   Wind: 7mph
Humidity: 85%   Direction: 250°WSW
Pressure: 30.03"   Gusts: NA
Location:  38.11°N, 103.51°W
Report Text: KLHX 200753Z AUTO 25006KT 10SM CLR M04/M06 A3003 RMK AO2 SLP177 T10391061
Loading
Personal Weather Stations






























Interactive Weather Map New forecast layout! Learn more

10-Day Weather Forecast

Advertisements
Track Severe Weather on mobile